createdAt,value
2022-11-09T00:00:46.626Z,8.24
2022-11-09T00:03:48.504Z,8.23
2022-11-09T00:06:50.101Z,8.20
2022-11-09T00:09:51.741Z,8.18
2022-11-09T00:12:53.328Z,8.13
2022-11-09T00:15:58.971Z,8.15
2022-11-09T00:19:00.517Z,8.14
2022-11-09T00:22:02.092Z,8.12
2022-11-09T00:25:03.821Z,8.12
2022-11-09T00:28:05.424Z,8.13
2022-11-09T00:31:10.582Z,8.11
2022-11-09T00:34:12.135Z,8.11
2022-11-09T00:37:13.725Z,8.10
2022-11-09T00:40:15.653Z,8.10
2022-11-09T00:43:17.594Z,8.10
2022-11-09T00:46:20.356Z,8.08
2022-11-09T00:49:22.332Z,8.04
2022-11-09T00:52:23.927Z,8.05
2022-11-09T00:55:25.500Z,8.01
2022-11-09T00:58:28.408Z,8.00
2022-11-09T01:01:30.033Z,7.99
2022-11-09T01:04:31.627Z,7.96
2022-11-09T01:07:33.182Z,7.95
2022-11-09T01:10:34.775Z,7.93
2022-11-09T01:13:37.195Z,7.95
2022-11-09T01:16:39.228Z,7.95
2022-11-09T01:19:40.830Z,7.95
2022-11-09T01:22:42.555Z,7.95
2022-11-09T01:25:44.641Z,7.93
2022-11-09T01:28:46.193Z,7.53
2022-11-09T01:31:48.956Z,7.90
2022-11-09T01:34:50.538Z,7.89
2022-11-09T01:37:52.103Z,7.87
2022-11-09T01:40:54.030Z,7.85
2022-11-09T01:44:14.560Z,7.83
2022-11-09T01:47:24.998Z,7.79
2022-11-09T01:50:34.950Z,7.78
2022-11-09T01:53:40.292Z,7.75
2022-11-09T01:56:42.395Z,7.72
2022-11-09T01:59:48.608Z,7.72
2022-11-09T02:03:04.162Z,7.70
2022-11-09T02:06:06.990Z,7.68
2022-11-09T02:09:31.332Z,7.60
2022-11-09T02:12:34.238Z,7.63
2022-11-09T02:15:40.161Z,7.63
2022-11-09T02:18:58.505Z,7.47
2022-11-09T02:22:00.095Z,7.59
2022-11-09T02:25:02.946Z,7.57
2022-11-09T02:28:04.729Z,7.56
2022-11-09T02:31:08.650Z,7.56
2022-11-09T02:34:15.435Z,7.55
2022-11-09T02:37:30.860Z,7.56
2022-11-09T02:40:36.608Z,7.58
2022-11-09T02:43:38.158Z,7.59
2022-11-09T02:46:39.719Z,7.58
2022-11-09T02:49:41.326Z,7.56
2022-11-09T02:52:42.982Z,7.56
2022-11-09T02:55:44.524Z,7.56
2022-11-09T02:58:46.069Z,7.57
2022-11-09T03:01:47.632Z,7.56
2022-11-09T03:04:49.209Z,7.56
2022-11-09T03:07:50.743Z,7.56
2022-11-09T03:10:52.311Z,7.56
2022-11-09T03:13:54.296Z,7.56
2022-11-09T03:16:55.840Z,7.56
2022-11-09T03:19:57.617Z,7.55
2022-11-09T03:22:59.767Z,7.55
2022-11-09T03:26:01.348Z,7.55
2022-11-09T03:29:02.930Z,7.57
2022-11-09T03:32:04.994Z,7.57
2022-11-09T03:35:06.965Z,7.58
2022-11-09T03:38:08.516Z,7.58
2022-11-09T03:41:10.546Z,7.57
2022-11-09T03:44:12.104Z,7.59
2022-11-09T03:47:13.661Z,7.59
2022-11-09T03:50:16.327Z,7.58
2022-11-09T03:53:18.222Z,7.57
2022-11-09T03:56:20.119Z,7.59
2022-11-09T03:59:21.691Z,7.57
2022-11-09T04:02:23.322Z,7.56
2022-11-09T04:05:25.132Z,7.56
2022-11-09T04:08:26.695Z,7.57
2022-11-09T04:11:28.229Z,7.58
2022-11-09T04:14:29.781Z,7.57
2022-11-09T04:17:31.446Z,7.51
2022-11-09T04:20:33.077Z,7.54
2022-11-09T04:23:34.646Z,7.55
2022-11-09T04:26:36.368Z,7.53
2022-11-09T04:29:37.911Z,7.55
2022-11-09T04:32:39.477Z,7.55
2022-11-09T04:35:41.032Z,7.56
2022-11-09T04:38:42.596Z,7.55
2022-11-09T04:41:44.183Z,7.57
2022-11-09T04:44:45.726Z,7.56
2022-11-09T04:47:47.984Z,7.57
2022-11-09T04:50:49.541Z,7.34
2022-11-09T04:53:51.085Z,7.55
2022-11-09T04:56:52.639Z,7.55
2022-11-09T04:59:54.201Z,7.54
2022-11-09T05:02:55.784Z,7.51
2022-11-09T05:05:57.430Z,7.52
2022-11-09T05:09:04.809Z,7.53
2022-11-09T05:12:06.566Z,7.51
2022-11-09T05:15:08.335Z,7.53
2022-11-09T05:18:10.383Z,7.51
2022-11-09T05:21:12.010Z,7.56
2022-11-09T05:24:13.657Z,7.52
2022-11-09T05:27:15.183Z,7.51
2022-11-09T05:30:16.745Z,7.42
2022-11-09T05:33:18.619Z,7.51
2022-11-09T05:36:20.923Z,7.50
2022-11-09T05:39:22.476Z,7.49
2022-11-09T05:42:24.699Z,7.48
2022-11-09T05:45:43.434Z,7.47
2022-11-09T05:48:46.032Z,7.45
2022-11-09T05:51:47.592Z,7.44
2022-11-09T05:54:49.164Z,7.44
2022-11-09T05:57:50.714Z,7.44
2022-11-09T06:00:52.339Z,7.43
2022-11-09T06:03:55.093Z,7.45
2022-11-09T06:06:56.829Z,7.45
2022-11-09T06:09:58.476Z,7.43
2022-11-09T06:13:00.119Z,7.42
2022-11-09T06:16:03.152Z,7.44
2022-11-09T06:19:04.710Z,7.50
2022-11-09T06:22:06.294Z,7.47
2022-11-09T06:25:08.318Z,7.52
2022-11-09T06:28:09.905Z,7.54
2022-11-09T06:31:16.236Z,7.54
2022-11-09T06:34:17.853Z,7.53
2022-11-09T06:37:19.475Z,7.55
2022-11-09T06:40:21.019Z,7.56
2022-11-09T06:43:23.707Z,7.61
2022-11-09T06:46:25.316Z,7.51
2022-11-09T06:49:26.926Z,7.66
2022-11-09T06:52:28.512Z,7.66
2022-11-09T06:55:31.212Z,7.71
2022-11-09T06:58:32.785Z,7.72
2022-11-09T07:01:34.380Z,7.75
2022-11-09T07:04:35.945Z,7.75
2022-11-09T07:07:37.500Z,7.78
2022-11-09T07:10:39.288Z,7.82
2022-11-09T07:13:40.914Z,7.89
2022-11-09T07:16:42.457Z,7.97
2022-11-09T07:19:44.008Z,8.11
2022-11-09T07:22:49.478Z,8.22
2022-11-09T07:25:51.046Z,8.13
2022-11-09T07:28:52.623Z,8.31
2022-11-09T07:31:54.202Z,8.37
2022-11-09T07:34:55.753Z,8.48
2022-11-09T07:38:01.549Z,8.52
2022-11-09T07:41:03.164Z,8.69
2022-11-09T07:44:04.951Z,8.75
2022-11-09T07:47:06.481Z,8.81
2022-11-09T07:50:08.309Z,8.93
2022-11-09T07:53:11.943Z,9.04
2022-11-09T07:56:13.455Z,9.12
2022-11-09T07:59:14.983Z,9.12
2022-11-09T08:02:16.569Z,9.16
2022-11-09T08:05:18.174Z,9.36
2022-11-09T08:08:19.707Z,9.52
2022-11-09T08:11:21.684Z,9.63
2022-11-09T08:14:23.206Z,9.62
2022-11-09T08:17:24.761Z,9.74
2022-11-09T08:20:26.437Z,9.76
2022-11-09T08:23:27.973Z,9.72
2022-11-09T08:26:29.572Z,9.68
2022-11-09T08:29:31.103Z,9.90
2022-11-09T08:32:32.751Z,9.82
2022-11-09T08:35:34.339Z,9.88
2022-11-09T08:38:35.986Z,9.87
2022-11-09T08:41:37.544Z,9.80
2022-11-09T08:44:39.066Z,9.98
2022-11-09T08:47:40.729Z,10.01
2022-11-09T08:50:42.263Z,9.92
2022-11-09T08:53:43.826Z,9.95
2022-11-09T08:56:46.492Z,9.94
2022-11-09T08:59:48.071Z,9.90
2022-11-09T09:02:49.939Z,9.88
2022-11-09T09:05:51.753Z,9.96
2022-11-09T09:08:53.278Z,9.96
2022-11-09T09:11:54.806Z,9.89
2022-11-09T09:14:56.382Z,9.85
2022-11-09T09:18:02.169Z,9.96
2022-11-09T09:21:10.757Z,10.01
2022-11-09T09:24:12.293Z,10.05
2022-11-09T09:27:14.004Z,10.03
2022-11-09T09:30:15.542Z,10.08
2022-11-09T09:33:17.109Z,10.08
2022-11-09T09:36:21.814Z,10.12
2022-11-09T09:39:23.399Z,10.15
2022-11-09T09:42:31.051Z,10.21
2022-11-09T09:45:34.903Z,10.29
2022-11-09T09:48:39.761Z,10.29
2022-11-09T09:51:45.494Z,10.08
2022-11-09T09:55:01.156Z,10.35
2022-11-09T09:58:07.578Z,10.46
2022-11-09T10:01:20.077Z,10.62
2022-11-09T10:04:24.076Z,10.74
2022-11-09T10:07:44.065Z,10.69
2022-11-09T10:11:03.732Z,10.75
2022-11-09T10:14:47.071Z,10.56
2022-11-09T10:18:15.846Z,10.67
2022-11-09T10:21:34.829Z,10.80
2022-11-09T10:28:14.686Z,10.68
2022-11-09T10:31:21.190Z,10.55
2022-11-09T10:34:30.376Z,10.57
2022-11-09T10:37:43.243Z,10.56
2022-11-09T10:41:04.668Z,10.57
2022-11-09T10:44:17.693Z,10.51
2022-11-09T10:47:19.817Z,10.49
2022-11-09T10:50:36.149Z,10.40
2022-11-09T10:53:37.734Z,10.44
2022-11-09T10:57:04.921Z,10.38
2022-11-09T11:00:17.960Z,10.28
2022-11-09T11:03:19.743Z,10.23
2022-11-09T11:06:21.429Z,10.24
2022-11-09T11:09:23.413Z,10.28
2022-11-09T11:12:24.956Z,10.29
2022-11-09T11:15:33.103Z,10.26
2022-11-09T11:18:36.074Z,10.26
2022-11-09T11:21:37.619Z,10.13
2022-11-09T11:24:48.135Z,10.15
2022-11-09T11:27:53.586Z,10.14
2022-11-09T11:30:55.173Z,10.17
2022-11-09T11:33:57.140Z,10.09
2022-11-09T11:37:28.840Z,10.09
2022-11-09T11:40:35.238Z,10.11
2022-11-09T11:43:36.737Z,10.11
2022-11-09T11:46:48.467Z,10.17
2022-11-09T11:50:08.569Z,10.08
2022-11-09T11:53:20.155Z,10.07
2022-11-09T11:56:48.786Z,10.05
2022-11-09T12:00:10.567Z,10.08
2022-11-09T12:03:33.966Z,10.17
2022-11-09T12:06:39.880Z,10.18
2022-11-09T12:10:21.280Z,10.16
2022-11-09T12:13:35.368Z,10.13
2022-11-09T12:16:40.484Z,10.11
2022-11-09T12:20:00.180Z,10.10
2022-11-09T12:23:20.494Z,10.11
2022-11-09T12:27:37.599Z,10.14
2022-11-09T12:31:09.943Z,10.06
2022-11-09T12:34:29.529Z,10.09
2022-11-09T12:37:35.733Z,10.00
2022-11-09T12:40:45.066Z,10.02
2022-11-09T12:43:57.810Z,10.00
2022-11-09T12:47:10.455Z,10.07
2022-11-09T12:50:20.600Z,10.13
2022-11-09T12:53:25.547Z,10.04
2022-11-09T12:56:35.044Z,10.10
2022-11-09T12:59:46.468Z,10.11
2022-11-09T13:02:57.204Z,10.13
2022-11-09T13:06:11.060Z,10.06
2022-11-09T13:09:15.657Z,10.08
2022-11-09T13:12:37.168Z,10.02
2022-11-09T13:15:40.020Z,10.03
2022-11-09T13:18:45.306Z,9.97
2022-11-09T13:21:47.167Z,9.94
2022-11-09T13:24:53.733Z,9.85
2022-11-09T13:27:55.257Z,9.83
2022-11-09T13:30:58.232Z,9.80
2022-11-09T13:34:38.060Z,9.81
2022-11-09T13:37:42.503Z,9.79
2022-11-09T13:40:48.704Z,9.76
2022-11-09T13:44:08.841Z,9.55
2022-11-09T13:47:34.286Z,9.79
2022-11-09T13:50:35.859Z,9.81
2022-11-09T13:53:37.376Z,9.82
2022-11-09T13:56:40.128Z,9.79
2022-11-09T13:59:46.898Z,9.77
2022-11-09T14:03:02.851Z,9.77
2022-11-09T14:06:04.567Z,9.76
2022-11-09T14:09:06.132Z,9.69
2022-11-09T14:12:32.916Z,9.69
2022-11-09T14:16:02.347Z,9.65
2022-11-09T14:19:20.264Z,9.64
2022-11-09T14:22:22.439Z,9.62
2022-11-09T14:25:24.684Z,9.61
2022-11-09T14:28:31.040Z,9.59
2022-11-09T14:31:32.562Z,9.55
2022-11-09T14:34:34.078Z,9.52
2022-11-09T14:37:36.488Z,9.50
2022-11-09T14:40:38.072Z,9.49
2022-11-09T14:43:43.116Z,9.42
2022-11-09T14:46:44.652Z,9.35
2022-11-09T14:49:46.900Z,9.38
2022-11-09T14:52:49.404Z,9.35
2022-11-09T14:55:52.077Z,9.34
2022-11-09T14:58:53.791Z,9.19
2022-11-09T15:01:58.181Z,9.29
2022-11-09T15:05:01.879Z,9.30
2022-11-09T15:08:03.665Z,9.30
2022-11-09T15:11:05.300Z,9.31
2022-11-09T15:14:16.117Z,9.30
2022-11-09T15:17:21.220Z,9.30
2022-11-09T15:20:30.415Z,9.29
2022-11-09T15:23:43.411Z,9.29
2022-11-09T15:26:47.291Z,9.30
2022-11-09T15:29:48.819Z,9.30
2022-11-09T15:32:50.359Z,9.29
2022-11-09T15:36:00.907Z,9.29
2022-11-09T15:39:09.175Z,9.30
2022-11-09T15:42:11.895Z,9.30
2022-11-09T15:45:15.522Z,9.31
2022-11-09T15:48:17.092Z,9.30
2022-11-09T15:51:19.297Z,9.32
2022-11-09T15:54:22.359Z,9.31
2022-11-09T15:57:23.915Z,9.30
2022-11-09T16:00:25.483Z,9.28
2022-11-09T16:03:27.015Z,9.30
2022-11-09T16:06:29.119Z,9.29
2022-11-09T16:09:30.684Z,9.28
2022-11-09T16:12:32.236Z,9.27
2022-11-09T16:15:35.476Z,9.27
2022-11-09T16:18:37.090Z,9.28
2022-11-09T16:21:38.612Z,9.28
2022-11-09T16:24:40.600Z,9.28
2022-11-09T16:27:50.032Z,9.28
2022-11-09T16:30:51.966Z,9.28
2022-11-09T16:33:53.501Z,9.28
2022-11-09T16:36:56.946Z,9.30
2022-11-09T16:39:59.541Z,9.28
2022-11-09T16:43:01.741Z,9.28
2022-11-09T16:46:03.342Z,9.28
2022-11-09T16:49:04.911Z,9.27
2022-11-09T16:52:06.462Z,9.27
2022-11-09T16:55:09.412Z,9.25
2022-11-09T16:58:10.932Z,9.25
2022-11-09T17:01:13.415Z,9.25
2022-11-09T17:04:16.955Z,9.25
2022-11-09T17:07:18.586Z,9.23
2022-11-09T17:10:20.848Z,9.24
2022-11-09T17:13:22.373Z,9.27
2022-11-09T17:16:24.077Z,8.89
2022-11-09T17:19:25.593Z,9.33
2022-11-09T17:22:27.163Z,9.34
2022-11-09T17:25:28.686Z,9.36
2022-11-09T17:28:30.575Z,9.38
2022-11-09T17:31:32.882Z,9.40
2022-11-09T17:34:34.509Z,9.40
2022-11-09T17:37:36.111Z,9.42
2022-11-09T17:40:37.782Z,9.38
2022-11-09T17:43:40.610Z,9.40
2022-11-09T17:46:42.179Z,9.40
2022-11-09T17:49:43.758Z,9.40
2022-11-09T17:52:45.281Z,9.41
2022-11-09T17:55:49.971Z,9.40
2022-11-09T17:58:51.524Z,9.31
2022-11-09T18:01:54.305Z,9.25
2022-11-09T18:04:55.826Z,9.14
2022-11-09T18:07:57.354Z,9.05
2022-11-09T18:10:59.610Z,8.75
2022-11-09T18:14:01.136Z,8.98
2022-11-09T18:17:02.699Z,9.03
2022-11-09T18:20:05.083Z,8.98
2022-11-09T18:23:07.719Z,9.00
2022-11-09T18:26:10.062Z,9.00
2022-11-09T18:29:11.654Z,8.93
2022-11-09T18:32:13.347Z,8.87
2022-11-09T18:35:15.034Z,8.93
2022-11-09T18:38:20.028Z,8.99
2022-11-09T18:41:23.391Z,8.89
2022-11-09T18:44:25.033Z,8.97
2022-11-09T18:47:26.874Z,9.03
2022-11-09T18:50:28.440Z,9.08
2022-11-09T18:53:40.832Z,9.15
2022-11-09T18:56:42.379Z,9.21
2022-11-09T18:59:43.905Z,9.24
2022-11-09T19:02:45.442Z,9.25
2022-11-09T19:05:47.985Z,9.25
2022-11-09T19:09:07.845Z,9.12
2022-11-09T19:12:10.375Z,9.21
2022-11-09T19:15:12.332Z,9.20
2022-11-09T19:18:13.899Z,9.17
2022-11-09T19:21:34.607Z,9.12
2022-11-09T19:24:36.116Z,9.20
2022-11-09T19:27:37.713Z,9.25
2022-11-09T19:30:39.285Z,9.20
2022-11-09T19:33:40.832Z,9.13
2022-11-09T19:36:43.250Z,9.09
2022-11-09T19:39:47.583Z,9.10
2022-11-09T19:42:49.189Z,9.03
2022-11-09T19:45:50.741Z,9.01
2022-11-09T19:48:52.431Z,8.99
2022-11-09T19:51:53.987Z,8.96
2022-11-09T19:54:55.508Z,8.96
2022-11-09T19:57:57.173Z,8.93
2022-11-09T20:01:06.660Z,8.92
2022-11-09T20:04:10.500Z,8.97
2022-11-09T20:07:12.245Z,9.03
2022-11-09T20:10:16.093Z,9.06
2022-11-09T20:13:19.349Z,8.97
2022-11-09T20:16:20.872Z,9.07
2022-11-09T20:19:23.783Z,9.10
2022-11-09T20:22:25.318Z,9.12
2022-11-09T20:25:26.859Z,9.15
2022-11-09T20:28:28.387Z,9.15
2022-11-09T20:31:29.926Z,9.15
2022-11-09T20:34:31.756Z,9.17
2022-11-09T20:37:33.281Z,9.21
2022-11-09T20:40:34.891Z,9.26
2022-11-09T20:43:36.931Z,9.28
2022-11-09T20:46:38.668Z,9.29
2022-11-09T20:49:40.452Z,9.31
2022-11-09T20:52:41.992Z,9.34
2022-11-09T20:55:43.517Z,9.35
2022-11-09T20:58:45.236Z,9.35
2022-11-09T21:01:46.940Z,9.33
2022-11-09T21:04:48.467Z,9.25
2022-11-09T21:07:50.048Z,9.35
2022-11-09T21:10:52.080Z,9.36
2022-11-09T21:13:54.358Z,9.37
2022-11-09T21:16:55.897Z,9.38
2022-11-09T21:19:57.432Z,9.38
2022-11-09T21:23:13.727Z,9.41
2022-11-09T21:26:53.834Z,9.42
2022-11-09T21:29:56.877Z,9.40
2022-11-09T21:32:58.403Z,9.39
2022-11-09T21:36:06.732Z,9.41
2022-11-09T21:39:08.299Z,9.17
2022-11-09T21:42:12.010Z,9.42
2022-11-09T21:45:13.620Z,9.43
2022-11-09T21:48:15.148Z,9.42
2022-11-09T21:51:17.050Z,9.42
2022-11-09T21:54:18.780Z,9.44
2022-11-09T21:57:20.301Z,9.44
2022-11-09T22:00:21.940Z,9.45
2022-11-09T22:03:23.785Z,9.48
2022-11-09T22:06:25.892Z,9.50
2022-11-09T22:09:32.493Z,9.49
2022-11-09T22:13:00.434Z,9.49
2022-11-09T22:16:09.726Z,9.50
2022-11-09T22:19:29.979Z,9.50
2022-11-09T22:22:32.320Z,9.50
2022-11-09T22:25:34.115Z,9.51
2022-11-09T22:28:35.650Z,9.41
2022-11-09T22:31:37.196Z,9.54
2022-11-09T22:34:38.727Z,9.54
2022-11-09T22:37:40.292Z,9.54
2022-11-09T22:40:41.809Z,9.55
2022-11-09T22:43:44.442Z,9.55
2022-11-09T22:46:45.982Z,9.58
2022-11-09T22:49:47.515Z,9.57
2022-11-09T22:52:53.436Z,9.58
2022-11-09T22:55:57.881Z,9.59
2022-11-09T22:58:59.574Z,9.57
2022-11-09T23:02:01.480Z,9.57
2022-11-09T23:05:03.058Z,9.57
2022-11-09T23:08:04.944Z,9.57
2022-11-09T23:11:09.229Z,9.50
2022-11-09T23:14:12.291Z,9.57
2022-11-09T23:17:33.815Z,9.57
2022-11-09T23:20:35.940Z,9.57
2022-11-09T23:23:38.038Z,9.59
2022-11-09T23:26:39.588Z,9.61
2022-11-09T23:29:41.197Z,9.61
2022-11-09T23:32:42.770Z,9.64
2022-11-09T23:35:44.347Z,9.64
2022-11-09T23:38:46.365Z,9.65
2022-11-09T23:41:47.883Z,9.65
2022-11-09T23:44:49.404Z,9.66
2022-11-09T23:47:52.893Z,9.66
2022-11-09T23:50:57.405Z,9.68
2022-11-09T23:53:58.986Z,9.68
2022-11-09T23:57:00.549Z,9.69
